sensor_id;sensor_type;location;lat;lon;timestamp;P1;durP1;ratioP1;P2;durP2;ratioP2
21591;SDS011;10958;50.892;3.992;2022-07-03T00:01:55;3.00;;;1.48;;
21591;SDS011;10958;50.892;3.992;2022-07-03T00:04:21;4.88;;;1.60;;
21591;SDS011;10958;50.892;3.992;2022-07-03T00:06:47;3.30;;;1.23;;
21591;SDS011;10958;50.892;3.992;2022-07-03T00:09:13;3.55;;;1.42;;
21591;SDS011;10958;50.892;3.992;2022-07-03T00:11:39;2.72;;;1.20;;
21591;SDS011;10958;50.892;3.992;2022-07-03T00:14:04;2.25;;;1.20;;
21591;SDS011;10958;50.892;3.992;2022-07-03T00:16:30;4.15;;;1.20;;
21591;SDS011;10958;50.892;3.992;2022-07-03T00:18:56;3.22;;;1.20;;
21591;SDS011;10958;50.892;3.992;2022-07-03T00:21:27;4.32;;;1.33;;
21591;SDS011;10958;50.892;3.992;2022-07-03T00:23:59;2.05;;;1.10;;
21591;SDS011;10958;50.892;3.992;2022-07-03T00:26:33;3.35;;;1.10;;
21591;SDS011;10958;50.892;3.992;2022-07-03T00:29:01;3.20;;;1.25;;
21591;SDS011;10958;50.892;3.992;2022-07-03T00:31:28;3.70;;;0.90;;
21591;SDS011;10958;50.892;3.992;2022-07-03T00:33:59;3.42;;;1.10;;
21591;SDS011;10958;50.892;3.992;2022-07-03T00:36:26;2.92;;;1.10;;
21591;SDS011;10958;50.892;3.992;2022-07-03T00:41:27;1.67;;;1.10;;
21591;SDS011;10958;50.892;3.992;2022-07-03T00:43:55;3.28;;;1.10;;
21591;SDS011;10958;50.892;3.992;2022-07-03T00:46:21;2.50;;;0.98;;
21591;SDS011;10958;50.892;3.992;2022-07-03T00:48:49;4.43;;;1.27;;
21591;SDS011;10958;50.892;3.992;2022-07-03T00:51:18;3.13;;;1.20;;
21591;SDS011;10958;50.892;3.992;2022-07-03T00:53:50;3.15;;;1.17;;
21591;SDS011;10958;50.892;3.992;2022-07-03T00:56:19;5.03;;;1.30;;
21591;SDS011;10958;50.892;3.992;2022-07-03T00:58:49;2.83;;;1.13;;
21591;SDS011;10958;50.892;3.992;2022-07-03T01:01:19;2.22;;;0.90;;
21591;SDS011;10958;50.892;3.992;2022-07-03T01:03:46;2.00;;;1.10;;
21591;SDS011;10958;50.892;3.992;2022-07-03T01:06:17;3.28;;;1.00;;
21591;SDS011;10958;50.892;3.992;2022-07-03T01:08:45;1.73;;;0.90;;
21591;SDS011;10958;50.892;3.992;2022-07-03T01:16:58;1.73;;;0.80;;
21591;SDS011;10958;50.892;3.992;2022-07-03T01:19:37;2.80;;;1.33;;
21591;SDS011;10958;50.892;3.992;2022-07-03T01:30:30;1.67;;;0.82;;
21591;SDS011;10958;50.892;3.992;2022-07-03T01:32:59;1.80;;;0.75;;
21591;SDS011;10958;50.892;3.992;2022-07-03T01:35:27;1.95;;;0.80;;
21591;SDS011;10958;50.892;3.992;2022-07-03T01:37:58;3.17;;;1.00;;
21591;SDS011;10958;50.892;3.992;2022-07-03T01:40:28;3.15;;;0.70;;
21591;SDS011;10958;50.892;3.992;2022-07-03T01:42:54;1.13;;;0.70;;
21591;SDS011;10958;50.892;3.992;2022-07-03T01:45:19;1.02;;;0.70;;
21591;SDS011;10958;50.892;3.992;2022-07-03T01:47:48;2.72;;;1.00;;
21591;SDS011;10958;50.892;3.992;2022-07-03T01:50:16;2.58;;;0.68;;
21591;SDS011;10958;50.892;3.992;2022-07-03T01:52:42;1.52;;;0.90;;
21591;SDS011;10958;50.892;3.992;2022-07-03T01:55:09;2.45;;;0.90;;
21591;SDS011;10958;50.892;3.992;2022-07-03T01:57:44;1.80;;;0.70;;
21591;SDS011;10958;50.892;3.992;2022-07-03T02:00:12;1.90;;;1.05;;
21591;SDS011;10958;50.892;3.992;2022-07-03T02:02:42;0.77;;;0.68;;
21591;SDS011;10958;50.892;3.992;2022-07-03T02:05:22;1.90;;;0.80;;
21591;SDS011;10958;50.892;3.992;2022-07-03T02:13:36;1.90;;;0.93;;
21591;SDS011;10958;50.892;3.992;2022-07-03T02:16:07;1.80;;;1.10;;
21591;SDS011;10958;50.892;3.992;2022-07-03T02:18:35;0.73;;;0.70;;
21591;SDS011;10958;50.892;3.992;2022-07-03T02:21:25;1.52;;;0.68;;
21591;SDS011;10958;50.892;3.992;2022-07-03T02:23:55;2.13;;;0.60;;
21591;SDS011;10958;50.892;3.992;2022-07-03T02:26:40;1.95;;;0.73;;
21591;SDS011;10958;50.892;3.992;2022-07-03T02:29:09;1.33;;;0.63;;
21591;SDS011;10958;50.892;3.992;2022-07-03T02:31:44;3.42;;;0.82;;
21591;SDS011;10958;50.892;3.992;2022-07-03T02:34:14;4.65;;;0.65;;
21591;SDS011;10958;50.892;3.992;2022-07-03T02:36:43;1.75;;;0.60;;
21591;SDS011;10958;50.892;3.992;2022-07-03T02:39:14;1.35;;;0.80;;
21591;SDS011;10958;50.892;3.992;2022-07-03T02:41:59;1.15;;;0.60;;
21591;SDS011;10958;50.892;3.992;2022-07-03T02:47:14;0.93;;;0.60;;
21591;SDS011;10958;50.892;3.992;2022-07-03T02:50:02;2.75;;;0.70;;
21591;SDS011;10958;50.892;3.992;2022-07-03T02:57:56;1.60;;;0.80;;
21591;SDS011;10958;50.892;3.992;2022-07-03T03:00:32;0.70;;;0.60;;
21591;SDS011;10958;50.892;3.992;2022-07-03T03:03:00;1.08;;;0.60;;
21591;SDS011;10958;50.892;3.992;2022-07-03T03:08:23;1.08;;;0.60;;
21591;SDS011;10958;50.892;3.992;2022-07-03T03:10:53;1.92;;;0.70;;
21591;SDS011;10958;50.892;3.992;2022-07-03T03:13:26;0.88;;;0.68;;
21591;SDS011;10958;50.892;3.992;2022-07-03T03:16:06;1.50;;;0.88;;
21591;SDS011;10958;50.892;3.992;2022-07-03T03:18:37;0.80;;;0.60;;
21591;SDS011;10958;50.892;3.992;2022-07-03T03:21:11;2.90;;;0.75;;
21591;SDS011;10958;50.892;3.992;2022-07-03T03:23:44;5.85;;;1.00;;
21591;SDS011;10958;50.892;3.992;2022-07-03T03:26:13;1.33;;;0.85;;
21591;SDS011;10958;50.892;3.992;2022-07-03T03:28:42;1.98;;;0.82;;
21591;SDS011;10958;50.892;3.992;2022-07-03T03:31:08;4.05;;;1.00;;
21591;SDS011;10958;50.892;3.992;2022-07-03T03:34:08;2.97;;;0.63;;
21591;SDS011;10958;50.892;3.992;2022-07-03T03:36:27;1.00;;;0.70;;
21591;SDS011;10958;50.892;3.992;2022-07-03T03:38:54;1.67;;;0.82;;
21591;SDS011;10958;50.892;3.992;2022-07-03T03:41:20;2.42;;;0.70;;
21591;SDS011;10958;50.892;3.992;2022-07-03T03:43:46;2.22;;;1.00;;
21591;SDS011;10958;50.892;3.992;2022-07-03T03:46:12;2.47;;;1.08;;
21591;SDS011;10958;50.892;3.992;2022-07-03T03:48:39;1.88;;;0.73;;
21591;SDS011;10958;50.892;3.992;2022-07-03T03:51:05;2.45;;;0.70;;
21591;SDS011;10958;50.892;3.992;2022-07-03T03:53:32;3.20;;;0.65;;
21591;SDS011;10958;50.892;3.992;2022-07-03T03:56:02;3.55;;;0.75;;
21591;SDS011;10958;50.892;3.992;2022-07-03T03:58:33;2.17;;;0.98;;
21591;SDS011;10958;50.892;3.992;2022-07-03T04:01:01;2.00;;;1.00;;
21591;SDS011;10958;50.892;3.992;2022-07-03T04:03:28;2.47;;;0.80;;
21591;SDS011;10958;50.892;3.992;2022-07-03T04:05:54;2.40;;;1.05;;
21591;SDS011;10958;50.892;3.992;2022-07-03T04:08:20;1.48;;;1.02;;
21591;SDS011;10958;50.892;3.992;2022-07-03T04:10:47;1.55;;;0.90;;
21591;SDS011;10958;50.892;3.992;2022-07-03T04:13:14;3.30;;;1.40;;
21591;SDS011;10958;50.892;3.992;2022-07-03T04:15:41;2.40;;;1.30;;
21591;SDS011;10958;50.892;3.992;2022-07-03T04:18:08;3.85;;;1.30;;
21591;SDS011;10958;50.892;3.992;2022-07-03T04:20:34;3.85;;;1.17;;
21591;SDS011;10958;50.892;3.992;2022-07-03T04:23:00;4.00;;;1.63;;
21591;SDS011;10958;50.892;3.992;2022-07-03T04:25:26;2.50;;;1.35;;
21591;SDS011;10958;50.892;3.992;2022-07-03T04:27:52;4.35;;;1.60;;
21591;SDS011;10958;50.892;3.992;2022-07-03T04:30:18;2.22;;;1.63;;
21591;SDS011;10958;50.892;3.992;2022-07-03T04:32:44;2.60;;;1.77;;
21591;SDS011;10958;50.892;3.992;2022-07-03T04:35:10;4.60;;;1.75;;
21591;SDS011;10958;50.892;3.992;2022-07-03T04:37:36;3.50;;;2.00;;
21591;SDS011;10958;50.892;3.992;2022-07-03T04:40:02;3.15;;;1.90;;
21591;SDS011;10958;50.892;3.992;2022-07-03T04:42:28;4.05;;;1.73;;
21591;SDS011;10958;50.892;3.992;2022-07-03T04:44:54;3.22;;;1.80;;
21591;SDS011;10958;50.892;3.992;2022-07-03T04:47:20;3.83;;;2.13;;
21591;SDS011;10958;50.892;3.992;2022-07-03T04:49:46;3.28;;;2.00;;
21591;SDS011;10958;50.892;3.992;2022-07-03T04:52:12;4.32;;;2.35;;
21591;SDS011;10958;50.892;3.992;2022-07-03T04:54:38;3.65;;;2.08;;
21591;SDS011;10958;50.892;3.992;2022-07-03T04:57:03;7.05;;;2.47;;
21591;SDS011;10958;50.892;3.992;2022-07-03T04:59:30;5.40;;;2.88;;
21591;SDS011;10958;50.892;3.992;2022-07-03T05:01:55;6.25;;;2.67;;
21591;SDS011;10958;50.892;3.992;2022-07-03T05:04:21;4.15;;;2.50;;
21591;SDS011;10958;50.892;3.992;2022-07-03T05:06:47;7.50;;;3.00;;
21591;SDS011;10958;50.892;3.992;2022-07-03T05:09:12;6.28;;;3.03;;
21591;SDS011;10958;50.892;3.992;2022-07-03T05:11:38;6.55;;;2.97;;
21591;SDS011;10958;50.892;3.992;2022-07-03T05:14:06;3.45;;;2.70;;
21591;SDS011;10958;50.892;3.992;2022-07-03T05:16:32;4.30;;;3.00;;
21591;SDS011;10958;50.892;3.992;2022-07-03T05:18:57;5.50;;;3.05;;
21591;SDS011;10958;50.892;3.992;2022-07-03T05:21:23;6.10;;;2.80;;
21591;SDS011;10958;50.892;3.992;2022-07-03T05:23:49;8.95;;;3.45;;
21591;SDS011;10958;50.892;3.992;2022-07-03T05:26:14;8.30;;;3.60;;
21591;SDS011;10958;50.892;3.992;2022-07-03T05:28:40;5.18;;;2.90;;
21591;SDS011;10958;50.892;3.992;2022-07-03T05:31:06;6.85;;;2.90;;
21591;SDS011;10958;50.892;3.992;2022-07-03T05:33:32;5.22;;;2.85;;
21591;SDS011;10958;50.892;3.992;2022-07-03T05:35:58;7.32;;;2.97;;
21591;SDS011;10958;50.892;3.992;2022-07-03T05:38:24;6.15;;;2.58;;
21591;SDS011;10958;50.892;3.992;2022-07-03T05:41:13;6.07;;;2.53;;
21591;SDS011;10958;50.892;3.992;2022-07-03T05:43:39;3.22;;;2.03;;
21591;SDS011;10958;50.892;3.992;2022-07-03T05:46:04;4.22;;;2.45;;
21591;SDS011;10958;50.892;3.992;2022-07-03T05:48:30;3.53;;;2.17;;
21591;SDS011;10958;50.892;3.992;2022-07-03T05:50:56;5.47;;;2.50;;
21591;SDS011;10958;50.892;3.992;2022-07-03T05:53:22;4.55;;;2.33;;
21591;SDS011;10958;50.892;3.992;2022-07-03T05:55:48;3.33;;;1.80;;
21591;SDS011;10958;50.892;3.992;2022-07-03T05:58:14;4.15;;;1.60;;
21591;SDS011;10958;50.892;3.992;2022-07-03T06:00:40;3.45;;;1.65;;
21591;SDS011;10958;50.892;3.992;2022-07-03T06:03:06;4.30;;;1.70;;
21591;SDS011;10958;50.892;3.992;2022-07-03T06:05:31;4.85;;;1.83;;
21591;SDS011;10958;50.892;3.992;2022-07-03T06:07:57;6.13;;;1.92;;
21591;SDS011;10958;50.892;3.992;2022-07-03T06:10:23;4.35;;;1.63;;
21591;SDS011;10958;50.892;3.992;2022-07-03T06:12:49;3.67;;;1.70;;
21591;SDS011;10958;50.892;3.992;2022-07-03T06:15:15;4.22;;;1.90;;
21591;SDS011;10958;50.892;3.992;2022-07-03T06:17:41;4.13;;;1.85;;
21591;SDS011;10958;50.892;3.992;2022-07-03T06:20:09;3.30;;;1.98;;
21591;SDS011;10958;50.892;3.992;2022-07-03T06:22:35;4.88;;;1.70;;
21591;SDS011;10958;50.892;3.992;2022-07-03T06:25:00;3.50;;;1.80;;
21591;SDS011;10958;50.892;3.992;2022-07-03T06:27:26;3.85;;;1.55;;
21591;SDS011;10958;50.892;3.992;2022-07-03T06:29:52;4.93;;;1.45;;
21591;SDS011;10958;50.892;3.992;2022-07-03T06:32:17;4.60;;;1.25;;
21591;SDS011;10958;50.892;3.992;2022-07-03T06:34:43;3.30;;;1.48;;
21591;SDS011;10958;50.892;3.992;2022-07-03T06:37:09;3.25;;;1.20;;
21591;SDS011;10958;50.892;3.992;2022-07-03T06:39:35;4.10;;;1.27;;
21591;SDS011;10958;50.892;3.992;2022-07-03T06:42:01;2.65;;;1.08;;
21591;SDS011;10958;50.892;3.992;2022-07-03T06:44:27;4.50;;;1.27;;
21591;SDS011;10958;50.892;3.992;2022-07-03T06:46:53;2.80;;;1.00;;
21591;SDS011;10958;50.892;3.992;2022-07-03T06:49:19;2.97;;;1.00;;
21591;SDS011;10958;50.892;3.992;2022-07-03T06:51:44;3.00;;;1.00;;
21591;SDS011;10958;50.892;3.992;2022-07-03T06:54:10;4.32;;;1.02;;
21591;SDS011;10958;50.892;3.992;2022-07-03T06:56:36;6.13;;;1.10;;
21591;SDS011;10958;50.892;3.992;2022-07-03T06:59:02;4.07;;;1.00;;
21591;SDS011;10958;50.892;3.992;2022-07-03T07:01:27;5.78;;;1.13;;
21591;SDS011;10958;50.892;3.992;2022-07-03T07:03:53;1.30;;;0.80;;
21591;SDS011;10958;50.892;3.992;2022-07-03T07:06:19;5.28;;;1.13;;
21591;SDS011;10958;50.892;3.992;2022-07-03T07:08:45;2.28;;;0.80;;
21591;SDS011;10958;50.892;3.992;2022-07-03T07:11:11;2.22;;;0.82;;
21591;SDS011;10958;50.892;3.992;2022-07-03T07:13:36;2.95;;;0.88;;
21591;SDS011;10958;50.892;3.992;2022-07-03T07:16:02;3.65;;;0.90;;
21591;SDS011;10958;50.892;3.992;2022-07-03T07:18:28;3.38;;;1.20;;
21591;SDS011;10958;50.892;3.992;2022-07-03T07:20:53;3.75;;;1.00;;
21591;SDS011;10958;50.892;3.992;2022-07-03T07:23:19;4.10;;;1.15;;
21591;SDS011;10958;50.892;3.992;2022-07-03T07:25:45;2.35;;;0.80;;
21591;SDS011;10958;50.892;3.992;2022-07-03T07:28:10;3.10;;;0.70;;
21591;SDS011;10958;50.892;3.992;2022-07-03T07:30:36;4.20;;;1.05;;
21591;SDS011;10958;50.892;3.992;2022-07-03T07:33:04;1.38;;;0.65;;
21591;SDS011;10958;50.892;3.992;2022-07-03T07:35:30;2.38;;;0.90;;
21591;SDS011;10958;50.892;3.992;2022-07-03T07:37:56;2.60;;;0.80;;
21591;SDS011;10958;50.892;3.992;2022-07-03T07:40:22;1.52;;;0.60;;
21591;SDS011;10958;50.892;3.992;2022-07-03T07:42:48;2.97;;;0.60;;
21591;SDS011;10958;50.892;3.992;2022-07-03T07:45:13;1.77;;;0.82;;
21591;SDS011;10958;50.892;3.992;2022-07-03T07:47:39;2.17;;;0.60;;
21591;SDS011;10958;50.892;3.992;2022-07-03T07:50:05;2.80;;;0.50;;
21591;SDS011;10958;50.892;3.992;2022-07-03T07:52:31;2.15;;;0.80;;
21591;SDS011;10958;50.892;3.992;2022-07-03T07:54:57;2.70;;;0.88;;
21591;SDS011;10958;50.892;3.992;2022-07-03T07:57:22;2.35;;;0.90;;
21591;SDS011;10958;50.892;3.992;2022-07-03T07:59:48;2.33;;;0.82;;
21591;SDS011;10958;50.892;3.992;2022-07-03T08:02:14;2.67;;;1.05;;
21591;SDS011;10958;50.892;3.992;2022-07-03T08:04:58;1.10;;;0.75;;
21591;SDS011;10958;50.892;3.992;2022-07-03T08:07:42;1.63;;;0.80;;
21591;SDS011;10958;50.892;3.992;2022-07-03T08:10:08;1.70;;;0.80;;
21591;SDS011;10958;50.892;3.992;2022-07-03T08:12:33;2.47;;;1.02;;
21591;SDS011;10958;50.892;3.992;2022-07-03T08:14:59;3.80;;;1.17;;
21591;SDS011;10958;50.892;3.992;2022-07-03T08:17:25;1.98;;;0.90;;
21591;SDS011;10958;50.892;3.992;2022-07-03T08:19:50;1.98;;;0.60;;
21591;SDS011;10958;50.892;3.992;2022-07-03T08:22:16;3.20;;;0.90;;
21591;SDS011;10958;50.892;3.992;2022-07-03T08:24:42;2.38;;;0.90;;
21591;SDS011;10958;50.892;3.992;2022-07-03T08:27:08;2.28;;;0.85;;
21591;SDS011;10958;50.892;3.992;2022-07-03T08:29:33;2.67;;;0.60;;
21591;SDS011;10958;50.892;3.992;2022-07-03T08:31:59;2.35;;;0.75;;
21591;SDS011;10958;50.892;3.992;2022-07-03T08:34:26;1.52;;;0.52;;
21591;SDS011;10958;50.892;3.992;2022-07-03T08:36:52;1.58;;;0.50;;
21591;SDS011;10958;50.892;3.992;2022-07-03T08:39:17;2.78;;;0.60;;
21591;SDS011;10958;50.892;3.992;2022-07-03T08:41:43;1.13;;;0.50;;
21591;SDS011;10958;50.892;3.992;2022-07-03T08:44:11;1.20;;;0.40;;
21591;SDS011;10958;50.892;3.992;2022-07-03T08:46:38;1.23;;;0.40;;
21591;SDS011;10958;50.892;3.992;2022-07-03T08:49:06;1.52;;;0.40;;
21591;SDS011;10958;50.892;3.992;2022-07-03T08:51:33;2.80;;;0.45;;
21591;SDS011;10958;50.892;3.992;2022-07-03T08:54:00;1.85;;;0.50;;
21591;SDS011;10958;50.892;3.992;2022-07-03T08:56:26;1.17;;;0.57;;
21591;SDS011;10958;50.892;3.992;2022-07-03T08:58:53;1.67;;;0.40;;
21591;SDS011;10958;50.892;3.992;2022-07-03T09:01:23;2.92;;;0.43;;
21591;SDS011;10958;50.892;3.992;2022-07-03T09:03:50;2.92;;;0.60;;
21591;SDS011;10958;50.892;3.992;2022-07-03T09:06:17;4.32;;;0.60;;
21591;SDS011;10958;50.892;3.992;2022-07-03T09:08:42;1.90;;;0.60;;
21591;SDS011;10958;50.892;3.992;2022-07-03T09:11:10;2.72;;;1.38;;
21591;SDS011;10958;50.892;3.992;2022-07-03T09:13:36;1.27;;;0.70;;
21591;SDS011;10958;50.892;3.992;2022-07-03T09:16:02;4.25;;;0.70;;
21591;SDS011;10958;50.892;3.992;2022-07-03T09:18:38;3.47;;;0.70;;
21591;SDS011;10958;50.892;3.992;2022-07-03T09:21:05;2.08;;;0.73;;
21591;SDS011;10958;50.892;3.992;2022-07-03T09:23:44;1.02;;;0.40;;
21591;SDS011;10958;50.892;3.992;2022-07-03T09:26:14;2.53;;;0.65;;
21591;SDS011;10958;50.892;3.992;2022-07-03T09:28:51;2.10;;;0.60;;
21591;SDS011;10958;50.892;3.992;2022-07-03T09:31:24;1.05;;;0.50;;
21591;SDS011;10958;50.892;3.992;2022-07-03T09:36:41;3.05;;;0.70;;
21591;SDS011;10958;50.892;3.992;2022-07-03T09:39:13;1.73;;;0.60;;
21591;SDS011;10958;50.892;3.992;2022-07-03T09:42:06;0.83;;;0.40;;
21591;SDS011;10958;50.892;3.992;2022-07-03T09:44:37;2.13;;;0.50;;
21591;SDS011;10958;50.892;3.992;2022-07-03T09:47:21;5.05;;;0.80;;
21591;SDS011;10958;50.892;3.992;2022-07-03T09:52:32;3.00;;;0.43;;
21591;SDS011;10958;50.892;3.992;2022-07-03T09:57:34;2.90;;;0.70;;
21591;SDS011;10958;50.892;3.992;2022-07-03T10:03:40;1.75;;;0.60;;
21591;SDS011;10958;50.892;3.992;2022-07-03T10:06:06;3.28;;;0.70;;
21591;SDS011;10958;50.892;3.992;2022-07-03T10:08:31;1.50;;;0.57;;
21591;SDS011;10958;50.892;3.992;2022-07-03T10:10:57;1.50;;;0.60;;
21591;SDS011;10958;50.892;3.992;2022-07-03T10:13:23;1.40;;;0.50;;
21591;SDS011;10958;50.892;3.992;2022-07-03T10:15:49;2.08;;;0.60;;
21591;SDS011;10958;50.892;3.992;2022-07-03T10:18:14;1.38;;;0.45;;
21591;SDS011;10958;50.892;3.992;2022-07-03T10:20:48;2.00;;;0.60;;
21591;SDS011;10958;50.892;3.992;2022-07-03T10:23:15;2.42;;;0.70;;
21591;SDS011;10958;50.892;3.992;2022-07-03T10:25:42;2.60;;;0.60;;
21591;SDS011;10958;50.892;3.992;2022-07-03T10:28:10;2.60;;;0.70;;
21591;SDS011;10958;50.892;3.992;2022-07-03T10:30:37;3.03;;;0.90;;
21591;SDS011;10958;50.892;3.992;2022-07-03T10:33:04;3.33;;;0.50;;
21591;SDS011;10958;50.892;3.992;2022-07-03T10:35:37;0.90;;;0.30;;
21591;SDS011;10958;50.892;3.992;2022-07-03T10:46:24;2.33;;;0.77;;
21591;SDS011;10958;50.892;3.992;2022-07-03T10:48:58;1.25;;;0.40;;
21591;SDS011;10958;50.892;3.992;2022-07-03T10:51:27;1.52;;;0.50;;
21591;SDS011;10958;50.892;3.992;2022-07-03T11:02:19;2.15;;;0.68;;
21591;SDS011;10958;50.892;3.992;2022-07-03T11:12:53;1.42;;;0.52;;
21591;SDS011;10958;50.892;3.992;2022-07-03T11:15:25;2.83;;;0.70;;
21591;SDS011;10958;50.892;3.992;2022-07-03T11:25:58;2.78;;;0.70;;
21591;SDS011;10958;50.892;3.992;2022-07-03T11:36:29;2.58;;;0.70;;
21591;SDS011;10958;50.892;3.992;2022-07-03T11:41:29;3.03;;;0.70;;
21591;SDS011;10958;50.892;3.992;2022-07-03T11:44:04;3.13;;;1.00;;
21591;SDS011;10958;50.892;3.992;2022-07-03T11:46:32;1.30;;;0.50;;
21591;SDS011;10958;50.892;3.992;2022-07-03T11:49:08;3.03;;;1.05;;
21591;SDS011;10958;50.892;3.992;2022-07-03T11:51:35;2.05;;;0.63;;
21591;SDS011;10958;50.892;3.992;2022-07-03T11:54:02;1.38;;;0.50;;
21591;SDS011;10958;50.892;3.992;2022-07-03T11:56:29;2.15;;;0.60;;
21591;SDS011;10958;50.892;3.992;2022-07-03T11:58:56;1.40;;;0.63;;
21591;SDS011;10958;50.892;3.992;2022-07-03T12:06:44;3.15;;;0.80;;
21591;SDS011;10958;50.892;3.992;2022-07-03T12:09:15;1.95;;;0.75;;
21591;SDS011;10958;50.892;3.992;2022-07-03T12:11:52;0.65;;;0.40;;
21591;SDS011;10958;50.892;3.992;2022-07-03T12:14:38;4.03;;;1.10;;
21591;SDS011;10958;50.892;3.992;2022-07-03T12:17:05;2.33;;;0.80;;
21591;SDS011;10958;50.892;3.992;2022-07-03T12:19:32;2.83;;;0.70;;
21591;SDS011;10958;50.892;3.992;2022-07-03T12:21:58;1.83;;;0.82;;
21591;SDS011;10958;50.892;3.992;2022-07-03T12:24:25;1.27;;;0.43;;
21591;SDS011;10958;50.892;3.992;2022-07-03T12:26:51;0.73;;;0.47;;
21591;SDS011;10958;50.892;3.992;2022-07-03T12:29:17;3.10;;;0.60;;
21591;SDS011;10958;50.892;3.992;2022-07-03T12:31:47;2.05;;;0.50;;
21591;SDS011;10958;50.892;3.992;2022-07-03T12:34:14;3.50;;;0.73;;
21591;SDS011;10958;50.892;3.992;2022-07-03T12:36:41;1.75;;;0.60;;
21591;SDS011;10958;50.892;3.992;2022-07-03T12:39:19;1.88;;;0.50;;
21591;SDS011;10958;50.892;3.992;2022-07-03T12:41:45;5.85;;;0.65;;
21591;SDS011;10958;50.892;3.992;2022-07-03T12:44:11;1.60;;;0.60;;
21591;SDS011;10958;50.892;3.992;2022-07-03T12:46:42;1.60;;;0.70;;
21591;SDS011;10958;50.892;3.992;2022-07-03T12:49:09;2.80;;;0.63;;
21591;SDS011;10958;50.892;3.992;2022-07-03T12:54:11;3.97;;;0.90;;
21591;SDS011;10958;50.892;3.992;2022-07-03T12:56:39;1.92;;;0.75;;
21591;SDS011;10958;50.892;3.992;2022-07-03T12:59:06;2.45;;;0.60;;
21591;SDS011;10958;50.892;3.992;2022-07-03T13:04:30;3.20;;;0.60;;
21591;SDS011;10958;50.892;3.992;2022-07-03T13:07:06;1.45;;;0.55;;
21591;SDS011;10958;50.892;3.992;2022-07-03T13:09:34;2.40;;;0.60;;
21591;SDS011;10958;50.892;3.992;2022-07-03T13:12:00;1.30;;;0.52;;
21591;SDS011;10958;50.892;3.992;2022-07-03T13:14:27;6.10;;;2.08;;
21591;SDS011;10958;50.892;3.992;2022-07-03T13:16:53;5.85;;;2.90;;
21591;SDS011;10958;50.892;3.992;2022-07-03T13:19:21;2.88;;;0.90;;
21591;SDS011;10958;50.892;3.992;2022-07-03T13:24:17;3.75;;;0.60;;
21591;SDS011;10958;50.892;3.992;2022-07-03T13:26:43;1.50;;;0.60;;
21591;SDS011;10958;50.892;3.992;2022-07-03T13:29:10;6.13;;;1.10;;
21591;SDS011;10958;50.892;3.992;2022-07-03T13:31:35;1.77;;;0.50;;
21591;SDS011;10958;50.892;3.992;2022-07-03T13:34:01;3.15;;;0.60;;
21591;SDS011;10958;50.892;3.992;2022-07-03T13:36:27;1.75;;;0.50;;
21591;SDS011;10958;50.892;3.992;2022-07-03T13:38:55;1.40;;;0.45;;
21591;SDS011;10958;50.892;3.992;2022-07-03T13:41:21;2.97;;;0.75;;
21591;SDS011;10958;50.892;3.992;2022-07-03T13:43:48;1.95;;;0.60;;
21591;SDS011;10958;50.892;3.992;2022-07-03T13:46:15;2.05;;;0.55;;
21591;SDS011;10958;50.892;3.992;2022-07-03T13:48:41;1.25;;;0.60;;
21591;SDS011;10958;50.892;3.992;2022-07-03T13:51:07;3.00;;;0.57;;
21591;SDS011;10958;50.892;3.992;2022-07-03T13:53:33;5.63;;;0.90;;
21591;SDS011;10958;50.892;3.992;2022-07-03T13:55:59;2.25;;;0.60;;
21591;SDS011;10958;50.892;3.992;2022-07-03T13:58:26;3.28;;;0.65;;
21591;SDS011;10958;50.892;3.992;2022-07-03T14:00:52;2.20;;;0.52;;
21591;SDS011;10958;50.892;3.992;2022-07-03T14:03:18;1.60;;;0.40;;
21591;SDS011;10958;50.892;3.992;2022-07-03T14:05:44;3.70;;;0.75;;
21591;SDS011;10958;50.892;3.992;2022-07-03T14:08:10;2.42;;;0.70;;
21591;SDS011;10958;50.892;3.992;2022-07-03T14:10:37;1.77;;;0.77;;
21591;SDS011;10958;50.892;3.992;2022-07-03T14:13:03;2.95;;;0.50;;
21591;SDS011;10958;50.892;3.992;2022-07-03T14:15:29;2.45;;;0.70;;
21591;SDS011;10958;50.892;3.992;2022-07-03T14:17:55;4.97;;;0.75;;
21591;SDS011;10958;50.892;3.992;2022-07-03T14:20:24;1.58;;;0.40;;
21591;SDS011;10958;50.892;3.992;2022-07-03T14:22:50;3.38;;;0.50;;
21591;SDS011;10958;50.892;3.992;2022-07-03T14:25:16;1.80;;;0.50;;
21591;SDS011;10958;50.892;3.992;2022-07-03T14:27:42;1.77;;;0.60;;
21591;SDS011;10958;50.892;3.992;2022-07-03T14:30:26;2.45;;;0.73;;
21591;SDS011;10958;50.892;3.992;2022-07-03T14:33:10;2.03;;;0.40;;
21591;SDS011;10958;50.892;3.992;2022-07-03T14:35:36;1.20;;;0.50;;
21591;SDS011;10958;50.892;3.992;2022-07-03T14:38:02;1.00;;;0.50;;
21591;SDS011;10958;50.892;3.992;2022-07-03T14:40:28;1.08;;;0.45;;
21591;SDS011;10958;50.892;3.992;2022-07-03T14:42:54;2.10;;;0.55;;
21591;SDS011;10958;50.892;3.992;2022-07-03T14:45:21;1.95;;;0.60;;
21591;SDS011;10958;50.892;3.992;2022-07-03T14:47:47;2.17;;;0.65;;
21591;SDS011;10958;50.892;3.992;2022-07-03T14:50:13;2.67;;;0.60;;
21591;SDS011;10958;50.892;3.992;2022-07-03T14:52:39;2.45;;;0.70;;
21591;SDS011;10958;50.892;3.992;2022-07-03T14:55:04;1.63;;;0.50;;
21591;SDS011;10958;50.892;3.992;2022-07-03T14:57:31;1.92;;;0.70;;
21591;SDS011;10958;50.892;3.992;2022-07-03T15:05:16;3.58;;;0.85;;
21591;SDS011;10958;50.892;3.992;2022-07-03T15:08:47;4.40;;;0.90;;
21591;SDS011;10958;50.892;3.992;2022-07-03T15:11:12;3.33;;;0.80;;
21591;SDS011;10958;50.892;3.992;2022-07-03T15:13:59;3.38;;;1.02;;
21591;SDS011;10958;50.892;3.992;2022-07-03T15:16:29;3.75;;;0.60;;
21591;SDS011;10958;50.892;3.992;2022-07-03T15:18:58;3.60;;;0.80;;
21591;SDS011;10958;50.892;3.992;2022-07-03T15:21:25;2.65;;;0.60;;
21591;SDS011;10958;50.892;3.992;2022-07-03T15:23:54;3.15;;;0.68;;
21591;SDS011;10958;50.892;3.992;2022-07-03T15:26:20;1.40;;;0.50;;
21591;SDS011;10958;50.892;3.992;2022-07-03T15:28:48;5.78;;;0.70;;
21591;SDS011;10958;50.892;3.992;2022-07-03T15:31:14;1.30;;;0.68;;
21591;SDS011;10958;50.892;3.992;2022-07-03T15:33:40;2.60;;;0.60;;
21591;SDS011;10958;50.892;3.992;2022-07-03T15:36:06;2.20;;;0.57;;
21591;SDS011;10958;50.892;3.992;2022-07-03T15:38:37;0.95;;;0.50;;
21591;SDS011;10958;50.892;3.992;2022-07-03T15:41:10;2.08;;;0.60;;
21591;SDS011;10958;50.892;3.992;2022-07-03T15:44:09;3.70;;;0.65;;
21591;SDS011;10958;50.892;3.992;2022-07-03T15:47:20;2.08;;;0.80;;
21591;SDS011;10958;50.892;3.992;2022-07-03T15:49:53;2.47;;;0.68;;
21591;SDS011;10958;50.892;3.992;2022-07-03T15:52:24;1.42;;;0.55;;
21591;SDS011;10958;50.892;3.992;2022-07-03T15:57:44;2.28;;;0.70;;
21591;SDS011;10958;50.892;3.992;2022-07-03T16:00:17;1.13;;;0.60;;
21591;SDS011;10958;50.892;3.992;2022-07-03T16:05:45;3.85;;;0.60;;
21591;SDS011;10958;50.892;3.992;2022-07-03T16:08:12;2.05;;;0.40;;
21591;SDS011;10958;50.892;3.992;2022-07-03T16:10:39;2.45;;;0.52;;
21591;SDS011;10958;50.892;3.992;2022-07-03T16:13:06;2.03;;;0.60;;
21591;SDS011;10958;50.892;3.992;2022-07-03T16:15:39;1.05;;;0.43;;
21591;SDS011;10958;50.892;3.992;2022-07-03T16:18:08;1.42;;;0.50;;
21591;SDS011;10958;50.892;3.992;2022-07-03T16:20:34;1.80;;;0.50;;
21591;SDS011;10958;50.892;3.992;2022-07-03T16:23:02;1.50;;;0.50;;
21591;SDS011;10958;50.892;3.992;2022-07-03T16:25:33;1.80;;;0.60;;
21591;SDS011;10958;50.892;3.992;2022-07-03T16:28:09;1.42;;;0.50;;
21591;SDS011;10958;50.892;3.992;2022-07-03T16:30:43;1.15;;;0.45;;
21591;SDS011;10958;50.892;3.992;2022-07-03T16:33:14;2.65;;;0.40;;
21591;SDS011;10958;50.892;3.992;2022-07-03T16:35:49;1.35;;;0.35;;
21591;SDS011;10958;50.892;3.992;2022-07-03T16:38:30;1.70;;;0.55;;
21591;SDS011;10958;50.892;3.992;2022-07-03T16:41:05;1.35;;;0.40;;
21591;SDS011;10958;50.892;3.992;2022-07-03T16:43:32;5.40;;;0.40;;
21591;SDS011;10958;50.892;3.992;2022-07-03T16:46:03;2.15;;;0.43;;
21591;SDS011;10958;50.892;3.992;2022-07-03T16:48:31;0.60;;;0.30;;
21591;SDS011;10958;50.892;3.992;2022-07-03T16:51:02;2.05;;;0.40;;